Time;durP1;ratioP1;P1;durP2;ratioP2;P2;SDS_P1;SDS_P2;PMS_P1;PMS_P2;Temp;Humidity;BMP_temperature;BMP_pressure;BME280_temperature;BME280_humidity;BME280_pressure;Samples;Min_cycle;Max_cycle;Signal;HPM_P1;HPM_P2
2022/10/20 00:02:00;;;;;;;21.27;9.85;;;22.90;61.90;;;;;;5013487;28;20033;-71
2022/10/20 00:04:26;;;;;;;23.02;10.88;;;22.90;62.10;;;;;;5013878;28;20029;-72
2022/10/20 00:06:52;;;;;;;24.73;11.10;;;22.90;62.30;;;;;;5031562;28;20112;-72
2022/10/20 00:09:20;;;;;;;22.98;11.02;;;22.90;62.60;;;;;;5032003;28;20025;-70
2022/10/20 00:11:46;;;;;;;21.80;11.13;;;22.90;62.50;;;;;;5032031;28;20104;-72
2022/10/20 00:14:12;;;;;;;28.50;12.02;;;22.90;62.60;;;;;;5031778;28;20113;-71
2022/10/20 00:16:39;;;;;;;21.85;11.52;;;22.90;62.70;;;;;;5029511;28;20428;-71
2022/10/20 00:19:05;;;;;;;19.75;11.00;;;22.90;62.80;;;;;;5022438;28;20052;-72
2022/10/20 00:21:31;;;;;;;23.35;10.68;;;22.80;62.90;;;;;;5036948;28;20060;-71
2022/10/20 00:24:01;;;;;;;18.45;10.82;;;22.90;63.00;;;;;;5040755;28;20072;-71
2022/10/20 00:26:29;;;;;;;20.48;10.68;;;22.80;63.10;;;;;;5047660;28;20071;-72
2022/10/20 00:28:55;;;;;;;22.55;10.57;;;22.80;63.20;;;;;;5034132;28;20036;-72
2022/10/20 00:31:22;;;;;;;22.85;11.05;;;22.80;63.40;;;;;;5033707;28;20020;-72
2022/10/20 00:33:48;;;;;;;17.98;9.63;;;22.80;63.40;;;;;;5033551;28;20029;-72
2022/10/20 00:36:16;;;;;;;20.38;10.00;;;22.80;63.50;;;;;;5051327;28;20551;-71
2022/10/20 00:38:42;;;;;;;17.77;9.55;;;22.80;63.60;;;;;;5051644;28;20037;-72
2022/10/20 00:41:14;;;;;;;18.73;10.02;;;22.80;63.70;;;;;;5033510;28;20033;-72
2022/10/20 00:43:52;;;;;;;18.73;9.70;;;22.80;63.70;;;;;;5051287;28;20108;-71
2022/10/20 00:46:39;;;;;;;17.45;9.32;;;22.90;63.80;;;;;;5050624;28;20376;-72
2022/10/20 00:49:20;;;;;;;17.52;9.10;;;22.90;63.80;;;;;;5033638;28;20568;-71
2022/10/20 00:51:48;;;;;;;19.05;9.27;;;22.80;63.90;;;;;;5051146;28;20490;-72
2022/10/20 00:54:19;;;;;;;18.30;9.73;;;22.90;64.10;;;;;;5051136;28;20510;-72
2022/10/20 00:56:47;;;;;;;19.58;9.00;;;22.90;64.10;;;;;;5050893;28;20048;-72
2022/10/20 00:59:16;;;;;;;15.85;8.90;;;22.90;64.10;;;;;;5051212;28;20390;-72
2022/10/20 01:01:43;;;;;;;;;;;22.90;64.20;;;;;;5051636;28;20033;-72
2022/10/20 01:04:09;;;;;;;19.73;8.93;;;22.90;64.50;;;;;;5033084;28;19986;-72
2022/10/20 01:06:35;;;;;;;19.30;9.38;;;22.90;64.50;;;;;;5051044;28;20028;-72
2022/10/20 01:09:01;;;;;;;16.77;9.23;;;22.90;64.60;;;;;;5051275;28;20387;-72
2022/10/20 01:11:52;;;;;;;16.08;9.70;;;22.90;64.70;;;;;;5033411;28;20033;-72
2022/10/20 01:14:54;;;;;;;14.45;8.75;;;22.90;64.70;;;;;;5051048;28;20025;-72
2022/10/20 01:17:43;;;;;;;16.80;9.18;;;22.80;64.80;;;;;;5033660;28;20041;-72
2022/10/20 01:20:20;;;;;;;21.08;9.30;;;22.90;64.90;;;;;;4996889;28;20072;-72
2022/10/20 01:23:10;;;;;;;16.38;8.77;;;22.90;64.90;;;;;;5032816;28;20036;-71
2022/10/20 01:25:53;;;;;;;17.33;9.38;;;22.80;65.20;;;;;;5051016;28;20021;-72
2022/10/20 01:28:51;;;;;;;17.55;8.40;;;22.80;65.20;;;;;;5050985;28;20108;-71
2022/10/20 01:31:23;;;;;;;17.42;8.38;;;22.80;65.30;;;;;;5006373;28;20518;-72
2022/10/20 01:33:53;;;;;;;16.50;8.43;;;22.80;65.30;;;;;;5032886;28;20036;-71
2022/10/20 01:36:38;;;;;;;15.52;7.93;;;22.80;65.40;;;;;;5016597;28;20099;-71
2022/10/20 01:39:13;;;;;;;16.00;8.02;;;22.80;65.30;;;;;;5051015;28;20033;-71
2022/10/20 01:41:49;;;;;;;16.95;9.02;;;22.80;65.50;;;;;;5051025;28;20095;-71
2022/10/20 01:44:16;;;;;;;13.50;7.35;;;22.80;65.50;;;;;;5050604;28;20471;-72
2022/10/20 01:46:43;;;;;;;16.85;8.23;;;22.80;65.40;;;;;;5050621;28;20025;-72
2022/10/20 01:49:11;;;;;;;13.30;7.60;;;22.80;65.70;;;;;;5033004;28;20029;-72
2022/10/20 01:51:37;;;;;;;14.95;8.38;;;22.80;65.70;;;;;;5032914;28;20060;-71
2022/10/20 01:54:03;;;;;;;14.70;7.82;;;22.80;65.60;;;;;;5050470;28;20056;-71
2022/10/20 01:56:49;;;;;;;18.48;7.93;;;22.80;65.60;;;;;;5051673;28;20033;-72
2022/10/20 02:00:07;;;;;;;12.60;7.55;;;22.80;65.70;;;;;;5054520;28;20117;-71
2022/10/20 02:02:35;;;;;;;14.38;7.90;;;22.80;65.60;;;;;;5010080;28;20065;-71
2022/10/20 02:05:06;;;;;;;17.77;8.10;;;22.80;65.60;;;;;;5050697;28;20040;-71
2022/10/20 02:07:33;;;;;;;12.23;7.13;;;22.80;65.50;;;;;;5038904;28;20025;-71
2022/10/20 02:10:07;;;;;;;12.70;7.38;;;22.80;65.60;;;;;;5028520;28;20021;-71
2022/10/20 02:12:38;;;;;;;13.23;7.25;;;22.80;65.50;;;;;;5019621;28;20025;-72
2022/10/20 02:15:05;;;;;;;16.50;8.00;;;22.80;65.60;;;;;;5054274;28;20449;-71
2022/10/20 02:17:33;;;;;;;14.55;7.80;;;22.90;65.60;;;;;;5054034;28;20040;-71
2022/10/20 02:19:59;;;;;;;12.27;7.20;;;22.80;65.70;;;;;;5036349;28;20553;-72
2022/10/20 02:22:25;;;;;;;14.68;7.88;;;22.80;65.80;;;;;;5053802;28;20064;-72
2022/10/20 02:24:51;;;;;;;13.75;7.32;;;22.80;65.90;;;;;;5036205;28;20048;-71
2022/10/20 02:27:32;;;;;;;13.60;7.78;;;22.80;65.70;;;;;;5053758;28;20025;-71
2022/10/20 02:30:04;;;;;;;16.40;7.85;;;22.80;66.00;;;;;;5053995;28;20033;-71
2022/10/20 02:32:31;;;;;;;13.05;6.88;;;22.80;66.10;;;;;;5053463;28;20057;-71
2022/10/20 02:34:57;;;;;;;11.93;7.22;;;22.80;66.10;;;;;;5019692;28;20036;-71
2022/10/20 02:37:23;;;;;;;16.70;7.40;;;22.80;66.20;;;;;;5053581;28;20029;-71
2022/10/20 02:39:48;;;;;;;12.52;6.95;;;22.80;66.30;;;;;;5053728;28;20066;-71
2022/10/20 02:42:16;;;;;;;15.68;6.82;;;22.80;66.30;;;;;;5053510;28;20028;-71
2022/10/20 02:44:42;;;;;;;12.88;6.95;;;22.80;66.20;;;;;;5035773;28;20538;-72
2022/10/20 02:47:07;;;;;;;16.90;7.40;;;22.80;66.20;;;;;;5019338;28;20037;-71
2022/10/20 02:49:33;;;;;;;12.82;7.15;;;22.80;66.40;;;;;;5035708;28;20067;-71
2022/10/20 02:51:59;;;;;;;12.80;7.20;;;22.80;66.50;;;;;;5053190;28;20467;-71
2022/10/20 02:54:27;;;;;;;20.63;7.05;;;22.80;66.50;;;;;;5035771;28;20037;-71
2022/10/20 02:56:54;;;;;;;12.63;6.55;;;22.80;66.50;;;;;;5035506;28;20044;-71
2022/10/20 02:59:20;;;;;;;14.63;7.00;;;22.80;66.30;;;;;;5053261;28;20056;-70
2022/10/20 03:01:46;;;;;;;17.80;7.65;;;22.80;66.30;;;;;;5053314;28;20467;-71
2022/10/20 03:04:12;;;;;;;12.27;6.25;;;22.80;66.50;;;;;;5034956;28;20064;-70
2022/10/20 03:06:39;;;;;;;11.88;6.32;;;22.80;66.30;;;;;;5035418;28;20024;-71
2022/10/20 03:09:05;;;;;;;13.85;6.53;;;22.80;66.50;;;;;;5052613;28;20032;-72
2022/10/20 03:11:30;;;;;;;11.50;5.97;;;22.80;66.60;;;;;;5035495;28;20025;-71
2022/10/20 03:13:56;;;;;;;14.88;7.03;;;22.80;66.50;;;;;;5034927;28;20139;-71
2022/10/20 03:16:22;;;;;;;13.73;6.68;;;22.80;66.60;;;;;;5052996;28;20029;-71
2022/10/20 03:18:48;;;;;;;13.82;7.28;;;22.80;66.60;;;;;;5053101;28;20252;-71
2022/10/20 03:21:14;;;;;;;13.48;6.90;;;22.80;66.50;;;;;;5052930;28;20033;-71
2022/10/20 03:23:40;;;;;;;11.07;6.20;;;22.80;66.50;;;;;;5052509;28;20033;-71
2022/10/20 03:26:10;;;;;;;13.77;6.70;;;22.80;66.50;;;;;;5018551;28;20035;-71
2022/10/20 03:28:36;;;;;;;13.00;6.10;;;22.80;66.50;;;;;;5019069;28;20036;-70
2022/10/20 03:31:01;;;;;;;10.30;5.95;;;22.80;66.40;;;;;;5035047;28;20025;-70
2022/10/20 03:33:27;;;;;;;10.10;5.88;;;22.80;66.40;;;;;;5034651;28;20036;-71
2022/10/20 03:35:53;;;;;;;11.98;6.28;;;22.80;66.50;;;;;;5037491;28;20025;-72
2022/10/20 03:38:19;;;;;;;12.45;6.03;;;22.80;66.30;;;;;;5014985;28;20116;-71
2022/10/20 03:40:45;;;;;;;13.85;6.35;;;22.80;66.70;;;;;;5032512;28;20029;-71
2022/10/20 03:43:10;;;;;;;10.15;6.18;;;22.80;66.60;;;;;;5032163;28;20108;-71
2022/10/20 03:45:36;;;;;;;9.80;5.97;;;22.80;66.70;;;;;;5032449;28;20040;-71
2022/10/20 03:48:02;;;;;;;10.75;6.05;;;22.80;66.80;;;;;;5032340;28;20079;-71
2022/10/20 03:50:28;;;;;;;9.73;5.80;;;22.80;66.50;;;;;;5032217;28;20521;-71
2022/10/20 03:52:53;;;;;;;12.45;6.32;;;22.80;66.70;;;;;;5034338;28;20029;-72
2022/10/20 03:55:19;;;;;;;9.35;5.70;;;22.80;66.80;;;;;;5042972;28;20082;-71
2022/10/20 03:57:45;;;;;;;9.40;5.78;;;22.80;66.80;;;;;;5040954;28;20463;-71
2022/10/20 04:00:12;;;;;;;11.20;6.20;;;22.80;66.80;;;;;;5051929;28;20039;-71
2022/10/20 04:02:42;;;;;;;9.98;5.50;;;22.80;66.80;;;;;;5051811;28;20061;-72
2022/10/20 04:05:10;;;;;;;10.25;5.97;;;22.80;66.90;;;;;;5034282;28;20064;-72
2022/10/20 04:07:36;;;;;;;10.32;5.82;;;22.80;67.00;;;;;;5033950;28;20088;-72
2022/10/20 04:10:02;;;;;;;11.63;5.78;;;22.80;67.00;;;;;;5034315;28;20021;-72
2022/10/20 04:12:29;;;;;;;12.68;5.90;;;22.80;66.90;;;;;;5031918;28;20040;-72
2022/10/20 04:14:54;;;;;;;11.50;5.40;;;22.80;66.80;;;;;;5043499;28;20122;-71
2022/10/20 04:17:20;;;;;;;9.00;5.43;;;22.80;67.00;;;;;;5051695;28;20072;-71
2022/10/20 04:19:46;;;;;;;12.27;5.45;;;22.80;66.90;;;;;;5033159;28;20032;-72
2022/10/20 04:22:12;;;;;;;8.93;5.32;;;22.80;66.80;;;;;;5033694;28;20029;-72
2022/10/20 04:24:38;;;;;;;10.50;5.70;;;22.80;66.90;;;;;;5034017;28;20025;-71
2022/10/20 04:27:04;;;;;;;9.07;5.22;;;22.80;67.10;;;;;;5033826;28;20025;-72
2022/10/20 04:29:30;;;;;;;9.82;5.38;;;22.80;67.00;;;;;;5033994;28;20029;-72
2022/10/20 04:31:56;;;;;;;11.15;5.10;;;22.80;66.90;;;;;;5051265;28;20063;-72
2022/10/20 04:34:22;;;;;;;13.32;5.00;;;22.80;66.60;;;;;;5051759;28;20482;-71
2022/10/20 04:36:48;;;;;;;11.35;4.80;;;22.80;66.50;;;;;;5033511;28;20032;-72
2022/10/20 04:39:14;;;;;;;17.42;5.32;;;22.80;62.80;;;;;;5051559;28;20036;-72
2022/10/20 04:41:40;;;;;;;9.27;4.88;;;22.70;63.00;;;;;;5051255;28;20028;-72
2022/10/20 04:44:05;;;;;;;9.48;4.95;;;22.70;63.70;;;;;;5015561;28;20422;-72
2022/10/20 04:46:31;;;;;;;12.10;4.78;;;22.70;64.20;;;;;;5031217;28;20372;-72
2022/10/20 04:48:57;;;;;;;10.27;5.07;;;22.70;65.10;;;;;;4991743;28;20048;-72
2022/10/20 04:51:23;;;;;;;14.25;4.82;;;22.70;65.20;;;;;;5042267;28;20395;-72
2022/10/20 04:53:49;;;;;;;14.35;4.97;;;22.70;65.40;;;;;;5029276;28;20037;-71
2022/10/20 04:56:18;;;;;;;9.35;5.13;;;22.70;65.50;;;;;;5059757;22;20032;-75
2022/10/20 04:58:52;;;;;;;10.55;4.88;;;22.70;65.50;;;;;;5070238;28;20032;-75
2022/10/20 05:01:19;;;;;;;8.48;4.68;;;22.70;65.60;;;;;;5071148;28;20028;-75
2022/10/20 05:03:45;;;;;;;14.73;5.28;;;22.70;65.80;;;;;;5060490;28;20036;-75
2022/10/20 05:06:20;;;;;;;13.07;6.07;;;22.70;65.70;;;;;;5054247;28;20020;-75
2022/10/20 05:08:48;;;;;;;11.30;5.03;;;22.70;65.90;;;;;;5050303;28;20022;-75
2022/10/20 05:11:17;;;;;;;14.35;4.43;;;22.70;65.90;;;;;;5048599;28;20032;-75
2022/10/20 05:13:43;;;;;;;10.50;4.72;;;22.70;65.90;;;;;;5050218;28;20064;-75
2022/10/20 05:16:09;;;;;;;13.65;4.90;;;22.70;65.80;;;;;;5049477;28;20096;-75
2022/10/20 05:18:36;;;;;;;16.60;5.28;;;22.70;65.90;;;;;;5051007;28;20055;-75
2022/10/20 05:21:10;;;;;;;13.15;4.90;;;22.70;65.80;;;;;;5049757;28;20102;-75
2022/10/20 05:23:38;;;;;;;9.80;4.75;;;22.70;66.00;;;;;;5050481;28;20025;-75
2022/10/20 05:26:10;;;;;;;13.80;4.55;;;22.70;65.90;;;;;;5050604;28;20589;-76
2022/10/20 05:28:35;;;;;;;9.65;4.82;;;22.70;66.00;;;;;;5050986;28;20103;-77
2022/10/20 05:31:03;;;;;;;8.77;4.57;;;22.70;66.00;;;;;;5051561;28;20029;-75
2022/10/20 05:33:29;;;;;;;7.93;4.20;;;22.70;66.00;;;;;;5047254;28;20039;-76
2022/10/20 05:35:55;;;;;;;12.57;5.15;;;22.70;66.20;;;;;;5054542;28;20036;-76
2022/10/20 05:38:21;;;;;;;8.43;4.53;;;22.70;66.10;;;;;;5053389;28;20443;-76
2022/10/20 05:40:47;;;;;;;8.80;4.78;;;22.70;66.10;;;;;;5054921;28;20108;-75
2022/10/20 05:43:13;;;;;;;7.57;4.60;;;22.70;66.10;;;;;;5053032;28;20495;-76
2022/10/20 05:45:39;;;;;;;10.07;4.70;;;22.70;66.20;;;;;;5045761;28;20053;-78
2022/10/20 05:48:05;;;;;;;9.43;4.45;;;22.70;65.80;;;;;;5054646;28;20108;-77
2022/10/20 05:50:31;;;;;;;13.88;4.68;;;22.50;55.00;;;;;;5054583;28;20057;-78
2022/10/20 05:52:57;;;;;;;9.90;3.90;;;22.20;50.30;;;;;;5054352;28;20109;-79
2022/10/20 05:55:23;;;;;;;8.50;3.90;;;21.60;45.70;;;;;;5050258;28;20120;-77
2022/10/20 05:57:52;;;;;;;7.32;4.00;;;21.30;44.80;;;;;;5051925;28;20040;-77
2022/10/20 06:00:28;;;;;;;9.13;4.05;;;21.00;44.10;;;;;;5047869;28;20028;-77
2022/10/20 06:02:54;;;;;;;14.23;3.58;;;20.70;43.80;;;;;;5052524;28;20025;-76
2022/10/20 06:05:19;;;;;;;7.82;3.78;;;20.50;43.90;;;;;;5054300;28;20029;-76
2022/10/20 06:07:45;;;;;;;5.78;3.35;;;20.80;45.50;;;;;;5053854;28;20076;-77
2022/10/20 06:10:11;;;;;;;8.93;3.50;;;21.00;46.90;;;;;;5054341;28;20547;-77
2022/10/20 06:12:37;;;;;;;13.85;3.42;;;21.30;48.50;;;;;;5053850;28;20064;-76
2022/10/20 06:15:03;;;;;;;18.73;4.00;;;21.40;49.20;;;;;;5054215;28;20029;-76
2022/10/20 06:17:28;;;;;;;23.27;4.72;;;21.70;50.40;;;;;;5053932;28;20112;-77
2022/10/20 06:19:54;;;;;;;20.35;4.78;;;21.80;50.80;;;;;;5054131;28;20465;-77
2022/10/20 06:22:20;;;;;;;19.33;4.20;;;21.90;50.50;;;;;;5034070;28;20048;-76
2022/10/20 06:24:46;;;;;;;42.20;25.80;;;21.80;49.30;;;;;;5060101;28;20103;-76
2022/10/20 06:27:11;;;;;;;34.10;19.50;;;21.30;44.70;;;;;;5050139;28;20017;-76
2022/10/20 06:29:37;;;;;;;21.95;10.68;;;20.90;43.90;;;;;;5049123;28;20021;-76
2022/10/20 06:32:03;;;;;;;18.98;6.88;;;20.50;42.90;;;;;;5052062;28;20025;-76
2022/10/20 06:34:29;;;;;;;16.35;6.70;;;20.10;42.80;;;;;;5052154;28;20120;-76
2022/10/20 06:36:55;;;;;;;18.35;6.53;;;20.20;44.80;;;;;;5035012;28;20025;-76
2022/10/20 06:39:22;;;;;;;18.15;7.18;;;20.50;46.10;;;;;;5052232;28;20044;-76
2022/10/20 06:41:52;;;;;;;12.55;6.78;;;20.80;45.60;;;;;;5052430;28;20035;-76
2022/10/20 06:44:20;;;;;;;12.95;7.00;;;21.00;46.10;;;;;;5052041;28;20103;-76
2022/10/20 06:46:46;;;;;;;14.10;6.65;;;21.20;46.70;;;;;;5053563;28;20114;-76
2022/10/20 06:49:13;;;;;;;13.45;6.63;;;21.30;46.60;;;;;;5052382;28;20053;-77
2022/10/20 06:51:39;;;;;;;12.68;6.40;;;21.40;47.20;;;;;;5053593;28;20021;-76
2022/10/20 06:54:05;;;;;;;14.25;6.80;;;21.50;47.40;;;;;;5052238;28;20479;-76
2022/10/20 06:56:33;;;;;;;11.35;5.47;;;21.60;47.70;;;;;;5053315;28;20033;-76
2022/10/20 06:58:59;;;;;;;12.98;6.20;;;21.60;48.10;;;;;;5052260;28;20386;-76
2022/10/20 07:01:31;;;;;;;10.93;5.75;;;21.70;48.60;;;;;;5052073;28;20029;-76
2022/10/20 07:04:03;;;;;;;13.30;6.20;;;21.80;49.00;;;;;;5051674;28;20063;-76
2022/10/20 07:06:32;;;;;;;14.27;5.70;;;21.80;49.20;;;;;;5053445;28;20072;-76
2022/10/20 07:08:59;;;;;;;9.50;5.50;;;21.80;49.80;;;;;;5053317;28;20025;-76
2022/10/20 07:11:27;;;;;;;13.15;6.07;;;21.90;50.20;;;;;;5052059;28;20027;-76
2022/10/20 07:13:54;;;;;;;12.43;5.70;;;21.90;50.50;;;;;;5053399;28;20032;-76
2022/10/20 07:16:22;;;;;;;12.25;5.55;;;21.90;50.90;;;;;;5052979;28;20479;-76
2022/10/20 07:18:48;;;;;;;12.18;5.75;;;22.00;51.20;;;;;;5052990;28;20062;-76
2022/10/20 07:21:17;;;;;;;11.63;5.97;;;22.00;52.20;;;;;;5051903;28;20039;-76
2022/10/20 07:23:43;;;;;;;10.60;5.67;;;22.00;52.40;;;;;;5051373;28;20520;-76
2022/10/20 07:26:17;;;;;;;10.55;5.65;;;22.00;51.60;;;;;;5052665;28;20689;-76
2022/10/20 07:28:46;;;;;;;9.65;5.10;;;22.00;53.40;;;;;;5051299;28;20082;-76
2022/10/20 07:31:15;;;;;;;9.93;5.50;;;22.00;52.70;;;;;;5051520;28;20033;-76
2022/10/20 07:33:41;;;;;;;9.27;5.13;;;22.00;52.90;;;;;;5052585;28;20029;-77
2022/10/20 07:36:27;;;;;;;10.13;5.20;;;22.00;52.90;;;;;;5052715;28;20078;-77
2022/10/20 07:38:56;;;;;;;10.05;5.65;;;22.00;53.20;;;;;;5052755;28;20114;-76
2022/10/20 07:41:22;;;;;;;11.15;5.63;;;22.10;53.70;;;;;;5052567;28;20040;-76
2022/10/20 07:43:48;;;;;;;11.60;4.90;;;22.10;53.50;;;;;;5052400;28;20033;-76
2022/10/20 07:46:14;;;;;;;10.73;5.40;;;22.10;53.90;;;;;;5051142;28;20021;-76
2022/10/20 07:48:40;;;;;;;12.00;5.68;;;22.10;53.90;;;;;;5051396;28;20071;-76
2022/10/20 07:51:14;;;;;;;9.63;5.40;;;22.10;54.00;;;;;;5052381;28;20102;-76
2022/10/20 07:53:40;;;;;;;10.18;5.50;;;22.20;54.30;;;;;;5052042;28;20032;-76
2022/10/20 07:56:06;;;;;;;9.38;5.47;;;22.10;54.20;;;;;;5052053;28;20143;-76
2022/10/20 07:58:32;;;;;;;10.38;5.20;;;22.20;54.30;;;;;;5052312;28;20039;-76
2022/10/20 08:00:58;;;;;;;11.68;5.20;;;22.20;54.40;;;;;;5052150;28;20032;-76
2022/10/20 08:03:23;;;;;;;9.38;5.18;;;22.20;54.50;;;;;;5051852;28;20033;-76
2022/10/20 08:05:49;;;;;;;12.27;5.07;;;22.30;54.70;;;;;;5052034;28;20569;-76
2022/10/20 08:08:15;;;;;;;10.10;5.13;;;22.30;54.90;;;;;;5052334;28;20493;-76
2022/10/20 08:10:41;;;;;;;10.88;5.43;;;22.30;55.00;;;;;;5051964;28;20027;-76
2022/10/20 08:13:06;;;;;;;10.45;5.03;;;22.30;55.20;;;;;;5051814;28;20051;-76
2022/10/20 08:15:32;;;;;;;10.13;4.78;;;22.30;55.50;;;;;;5051855;28;20036;-76
2022/10/20 08:17:58;;;;;;;8.23;4.55;;;22.40;55.50;;;;;;5050719;28;20028;-76
2022/10/20 08:20:24;;;;;;;9.68;5.13;;;22.40;55.60;;;;;;5051099;28;20029;-77
2022/10/20 08:22:50;;;;;;;7.90;4.88;;;22.40;55.70;;;;;;5051475;28;20063;-77
2022/10/20 08:25:16;;;;;;;8.40;5.03;;;22.40;55.80;;;;;;5050629;28;20036;-76
2022/10/20 08:27:41;;;;;;;9.00;4.65;;;22.40;55.90;;;;;;5050607;28;20021;-77
2022/10/20 08:30:08;;;;;;;9.38;5.18;;;22.40;56.00;;;;;;5050760;28;20029;-77
2022/10/20 08:32:34;;;;;;;8.77;5.13;;;22.40;56.00;;;;;;5051362;28;20032;-77
2022/10/20 08:35:00;;;;;;;8.82;4.28;;;22.40;56.20;;;;;;5051540;28;20021;-77
2022/10/20 08:37:29;;;;;;;9.10;5.18;;;22.40;56.30;;;;;;5051591;28;20083;-77
2022/10/20 08:39:54;;;;;;;8.88;4.75;;;22.40;56.50;;;;;;5051674;28;20032;-77
2022/10/20 08:42:20;;;;;;;9.40;4.82;;;22.40;56.90;;;;;;5049882;28;20092;-77
2022/10/20 08:44:47;;;;;;;9.73;5.03;;;22.40;57.00;;;;;;5051064;28;20059;-77
2022/10/20 08:47:30;;;;;;;6.35;4.25;;;22.30;56.90;;;;;;5033551;28;20502;-77
2022/10/20 08:49:57;;;;;;;10.90;5.15;;;22.40;57.70;;;;;;5051415;28;20029;-76
2022/10/20 08:52:25;;;;;;;8.32;4.47;;;22.30;57.20;;;;;;5051121;28;20021;-77
2022/10/20 08:54:54;;;;;;;7.18;4.72;;;22.30;57.40;;;;;;5051384;28;20502;-77
2022/10/20 08:57:31;;;;;;;7.88;4.72;;;22.30;57.50;;;;;;5051142;28;20032;-77
2022/10/20 09:00:19;;;;;;;8.95;4.30;;;22.40;57.70;;;;;;5049958;28;20029;-77
2022/10/20 09:02:47;;;;;;;8.52;4.55;;;22.40;57.50;;;;;;5050960;28;20416;-77
2022/10/20 09:05:17;;;;;;;7.40;4.40;;;22.40;57.70;;;;;;5051609;28;20497;-77
2022/10/20 09:07:43;;;;;;;8.73;4.78;;;22.40;57.70;;;;;;5050657;28;20061;-76
2022/10/20 09:10:15;;;;;;;9.73;5.07;;;22.40;57.90;;;;;;5050079;28;20036;-77
2022/10/20 09:12:45;;;;;;;7.65;4.78;;;22.40;58.00;;;;;;5032683;28;20098;-76
2022/10/20 09:15:12;;;;;;;8.85;4.47;;;22.40;58.00;;;;;;5051236;28;20071;-76
2022/10/20 09:17:48;;;;;;;7.22;4.35;;;22.30;58.10;;;;;;5051230;28;20036;-76
2022/10/20 09:20:41;;;;;;;7.15;4.30;;;22.40;58.20;;;;;;5050131;28;20081;-76
2022/10/20 09:23:18;;;;;;;9.35;5.00;;;22.40;58.50;;;;;;5049397;28;20523;-77
2022/10/20 09:25:46;;;;;;;7.50;4.38;;;22.40;58.10;;;;;;5051102;28;20031;-76
2022/10/20 09:28:26;;;;;;;8.30;4.60;;;22.40;58.20;;;;;;5051157;28;20044;-76
2022/10/20 09:30:52;;;;;;;;;;;22.40;58.30;;;;;;5051845;28;20056;-76
2022/10/20 09:33:33;;;;;;;8.18;4.50;;;22.40;58.30;;;;;;5050595;28;19908;-76
2022/10/20 09:36:04;;;;;;;7.65;4.70;;;22.40;58.30;;;;;;5051002;28;20111;-76
2022/10/20 09:38:33;;;;;;;6.55;3.95;;;22.40;58.30;;;;;;5049843;28;20033;-76
2022/10/20 09:41:25;;;;;;;8.50;4.57;;;22.40;58.30;;;;;;5050913;28;20086;-76
2022/10/20 09:44:04;;;;;;;7.05;4.45;;;22.40;58.50;;;;;;5050420;28;20029;-76
2022/10/20 09:46:36;;;;;;;;;;;22.40;59.00;;;;;;5051536;28;20025;-76
2022/10/20 09:49:02;;;;;;;9.18;4.95;;;22.40;58.50;;;;;;5050832;28;19916;-76
2022/10/20 09:51:29;;;;;;;7.78;4.38;;;22.40;59.10;;;;;;5050981;28;20475;-76
2022/10/20 09:54:13;;;;;;;8.10;4.47;;;22.40;58.60;;;;;;5050477;28;20025;-76
2022/10/20 09:56:41;;;;;;;8.30;4.75;;;22.40;58.60;;;;;;5050647;28;20127;-76
2022/10/20 09:59:23;;;;;;;8.48;4.55;;;22.40;58.60;;;;;;5049483;28;20449;-76
2022/10/20 10:01:57;;;;;;;7.82;4.85;;;22.40;58.70;;;;;;5050691;28;20470;-76
2022/10/20 10:04:38;;;;;;;7.63;4.68;;;22.40;58.70;;;;;;5050650;28;20037;-76
2022/10/20 10:07:25;;;;;;;6.43;4.10;;;22.40;58.70;;;;;;5050994;28;20033;-76
2022/10/20 10:10:03;;;;;;;9.32;4.82;;;22.40;58.60;;;;;;5050527;28;20052;-76
2022/10/20 10:12:30;;;;;;;6.38;3.90;;;22.40;58.60;;;;;;5049021;28;20032;-76
2022/10/20 10:15:00;;;;;;;8.02;4.40;;;22.40;58.90;;;;;;5050676;28;20033;-76
2022/10/20 10:17:41;;;;;;;6.53;4.00;;;22.40;58.80;;;;;;5049596;28;20108;-76
2022/10/20 10:20:33;;;;;;;8.73;4.78;;;22.40;58.90;;;;;;5053747;28;20751;-76
2022/10/20 10:23:19;;;;;;;6.45;4.00;;;22.40;58.90;;;;;;5053649;28;20116;-76
2022/10/20 10:25:45;;;;;;;6.93;4.22;;;22.40;59.00;;;;;;5054137;28;20025;-76
2022/10/20 10:28:25;;;;;;;6.63;3.95;;;22.40;59.00;;;;;;5053808;28;20104;-76
2022/10/20 10:31:18;;;;;;;6.25;4.15;;;22.50;59.10;;;;;;5054113;28;20048;-76
2022/10/20 10:33:45;;;;;;;6.63;4.40;;;22.40;59.30;;;;;;5048114;28;20051;-77
2022/10/20 10:36:32;;;;;;;6.80;4.20;;;22.40;59.10;;;;;;5053799;28;20033;-76
2022/10/20 10:38:59;;;;;;;7.95;4.75;;;22.40;59.30;;;;;;5054058;28;20067;-76
2022/10/20 10:41:36;;;;;;;7.75;4.43;;;22.40;59.20;;;;;;5053977;28;20450;-76
2022/10/20 10:44:07;;;;;;;7.07;4.25;;;22.40;59.20;;;;;;5035602;28;20029;-76
2022/10/20 10:46:36;;;;;;;7.50;4.00;;;22.40;59.40;;;;;;5052563;28;20044;-76
2022/10/20 10:49:29;;;;;;;7.75;3.85;;;22.40;59.20;;;;;;5053578;28;20104;-76
2022/10/20 10:51:55;;;;;;;6.53;4.35;;;22.40;59.20;;;;;;5053314;28;20364;-76
2022/10/20 10:54:39;;;;;;;6.50;3.88;;;22.40;59.30;;;;;;5053457;28;20037;-76
2022/10/20 10:57:17;;;;;;;7.68;4.18;;;22.40;59.40;;;;;;5067038;22;20037;-72
2022/10/20 10:59:47;;;;;;;9.45;4.50;;;22.40;59.30;;;;;;5052911;28;20025;-72
2022/10/20 11:02:12;;;;;;;;;;;22.50;59.30;;;;;;5052250;28;20225;-72
2022/10/20 11:04:44;;;;;;;7.03;4.10;;;22.50;59.40;;;;;;5053274;28;19978;-72
2022/10/20 11:07:41;;;;;;;7.50;3.72;;;22.50;59.30;;;;;;5047326;28;20100;-72
2022/10/20 11:10:12;;;;;;;10.07;4.68;;;22.50;59.40;;;;;;5033380;28;20345;-72
2022/10/20 11:12:39;;;;;;;6.10;3.85;;;22.50;59.20;;;;;;5033241;28;20078;-73
2022/10/20 11:15:27;;;;;;;6.07;4.05;;;22.50;59.30;;;;;;5033234;28;20022;-73
2022/10/20 11:18:17;;;;;;;6.43;3.70;;;22.50;59.30;;;;;;5033194;28;20028;-74
2022/10/20 11:20:55;;;;;;;5.90;3.85;;;22.50;59.40;;;;;;5033322;28;20445;-72
2022/10/20 11:23:58;;;;;;;7.82;4.20;;;22.50;59.40;;;;;;5032855;28;20025;-72
2022/10/20 11:26:31;;;;;;;6.30;4.18;;;22.50;59.70;;;;;;5031835;28;20178;-73
2022/10/20 11:28:58;;;;;;;6.32;4.03;;;22.50;59.50;;;;;;5031902;28;20372;-72
2022/10/20 11:31:32;;;;;;;6.05;3.80;;;22.50;59.60;;;;;;5032906;28;20025;-72
2022/10/20 11:34:32;;;;;;;8.13;4.13;;;22.50;59.60;;;;;;5031242;28;20037;-72
2022/10/20 11:37:24;;;;;;;6.43;3.97;;;22.50;59.70;;;;;;5025344;28;20052;-72
2022/10/20 11:40:20;;;;;;;7.60;3.88;;;22.50;59.70;;;;;;5029855;28;20051;-72
2022/10/20 11:43:28;;;;;;;6.97;4.15;;;22.50;59.80;;;;;;5032317;28;20056;-71
2022/10/20 11:46:11;;;;;;;7.15;3.92;;;22.50;59.70;;;;;;5032888;28;20029;-72
2022/10/20 11:48:49;;;;;;;7.25;4.22;;;22.50;59.80;;;;;;5031358;28;20041;-72
2022/10/20 11:51:58;;;;;;;6.38;4.10;;;22.50;59.80;;;;;;5032534;28;20043;-72
2022/10/20 11:54:45;;;;;;;6.30;3.78;;;22.50;59.80;;;;;;5030893;28;20042;-72
2022/10/20 11:57:35;;;;;;;6.65;4.25;;;22.50;59.90;;;;;;5032031;28;20128;-72
2022/10/20 12:00:20;;;;;;;6.35;4.00;;;22.50;59.90;;;;;;5032398;28;20037;-72
2022/10/20 12:02:48;;;;;;;6.72;4.05;;;22.40;59.90;;;;;;5030938;28;20502;-72
2022/10/20 12:05:51;;;;;;;5.88;4.03;;;22.40;60.00;;;;;;5032125;28;20048;-72
2022/10/20 12:08:31;;;;;;;5.55;3.80;;;22.40;60.00;;;;;;5032044;28;20080;-72
2022/10/20 12:11:05;;;;;;;6.57;4.00;;;22.40;60.00;;;;;;5032007;28;20445;-72
2022/10/20 12:13:54;;;;;;;5.60;3.58;;;22.40;60.00;;;;;;5032143;28;20033;-72
2022/10/20 12:16:51;;;;;;;7.03;4.00;;;22.40;60.00;;;;;;5032038;28;20025;-72
2022/10/20 12:19:24;;;;;;;6.13;3.85;;;22.40;60.00;;;;;;5031977;28;20042;-72
2022/10/20 12:21:57;;;;;;;6.22;3.78;;;22.50;60.10;;;;;;5030655;28;20034;-72
2022/10/20 12:24:39;;;;;;;6.63;3.47;;;22.50;60.10;;;;;;5031840;28;20033;-72
2022/10/20 12:27:08;;;;;;;6.35;4.05;;;22.50;60.00;;;;;;5030875;28;20110;-72
2022/10/20 12:29:34;;;;;;;7.50;3.40;;;22.50;60.00;;;;;;5031961;28;20033;-72
2022/10/20 12:32:28;;;;;;;5.65;3.65;;;22.50;59.90;;;;;;5030174;28;20044;-72
2022/10/20 12:34:55;;;;;;;6.20;3.85;;;22.50;60.00;;;;;;5030706;28;20034;-73
2022/10/20 12:37:23;;;;;;;5.25;3.53;;;22.50;60.10;;;;;;5031644;28;20033;-73
2022/10/20 12:40:00;;;;;;;6.25;3.88;;;22.40;60.00;;;;;;5031579;28;20021;-73
2022/10/20 12:42:31;;;;;;;6.47;3.63;;;22.50;60.10;;;;;;5030802;28;20037;-72
2022/10/20 12:45:17;;;;;;;5.32;3.45;;;22.50;60.20;;;;;;5031600;28;20499;-72
2022/10/20 12:47:52;;;;;;;5.45;3.83;;;22.50;60.10;;;;;;5021169;28;20042;-73
2022/10/20 12:50:38;;;;;;;6.28;3.75;;;22.50;60.10;;;;;;5031643;28;20061;-72
2022/10/20 12:53:26;;;;;;;5.30;3.45;;;22.50;60.20;;;;;;5031158;28;20029;-72
2022/10/20 12:55:59;;;;;;;6.22;3.97;;;22.50;60.30;;;;;;5031330;28;20041;-73
2022/10/20 12:58:32;;;;;;;6.03;3.42;;;22.40;60.10;;;;;;5030177;28;20041;-73
2022/10/20 13:00:57;;;;;;;6.47;3.78;;;22.50;60.30;;;;;;5031351;28;20029;-73
2022/10/20 13:03:45;;;;;;;5.70;3.75;;;22.50;60.20;;;;;;5029795;28;20434;-73
2022/10/20 13:06:38;;;;;;;7.07;3.97;;;22.40;60.10;;;;;;5013709;28;20434;-72